📊 Raw Sensor Data

Showing records 39876 to 39900 of 84,953 total

ID Distance (ft) Battery V Battery A Int Temp (°F) Int Humid (%) Ext Temp (°F) Solar V RSSI SNR Time Stamp
45090 15.2 3.95 0 86 55 80 4.50 -74 8 07/01/2025 08:00 PM
45089 15.2 3.96 7 91 54 83 4.50 -75 8 07/01/2025 07:45 PM
45088 15.2 3.98 10 94 53 88 4.50 -74 8 07/01/2025 07:30 PM
45087 15.2 3.88 -11 96 52 90 4.60 -74 8 07/01/2025 07:15 PM
45086 15.2 3.94 0 97 53 90 4.60 -75 8 07/01/2025 07:00 PM
45085 15.2 3.91 0 99 52 91 5.10 -75 7 07/01/2025 06:45 PM
45084 15.2 4.10 0 101 51 93 5.10 -74 8 07/01/2025 06:30 PM
45083 15.2 3.91 0 101 52 93 5.10 -75 8 07/01/2025 06:15 PM
45082 15.2 3.91 0 102 52 94 5.10 -74 8 07/01/2025 06:00 PM
45081 15.3 3.91 0 105 50 96 5.10 -76 8 07/01/2025 05:45 PM
45080 15.3 3.91 0 106 49 98 5.10 -75 8 07/01/2025 05:30 PM
45079 15.3 3.91 0 107 49 99 5.10 -74 8 07/01/2025 05:15 PM
45078 15.2 3.91 0 108 47 100 5.10 -73 7 07/01/2025 04:45 PM
45077 15.3 3.91 0 109 46 99 5.10 -74 8 07/01/2025 04:30 PM
45076 15.2 3.91 0 108 45 100 5.10 -73 8 07/01/2025 04:15 PM
45075 15.2 3.91 0 107 45 98 5.10 -73 8 07/01/2025 04:00 PM
45074 15.2 3.91 0 107 44 99 5.10 -72 8 07/01/2025 03:45 PM
45073 15.2 3.93 0 107 44 100 5.10 -73 8 07/01/2025 03:30 PM
45072 15.2 3.91 0 106 43 100 5.10 -73 8 07/01/2025 03:15 PM
45071 15.2 3.91 0 105 43 99 5.20 -74 8 07/01/2025 03:00 PM
45070 15.2 3.91 0 104 42 98 5.20 -75 8 07/01/2025 02:45 PM
45069 15.2 3.98 0 103 42 97 5.20 -75 7 07/01/2025 02:30 PM
45068 15.2 3.98 0 101 42 97 5.10 -72 7 07/01/2025 02:15 PM
45067 15.1 3.91 0 99 42 94 5.10 -74 8 07/01/2025 02:00 PM
45066 15.1 3.91 0 97 42 91 5.10 -74 7 07/01/2025 01:45 PM